sensor_id;sensor_type;location;lat;lon;timestamp;P1;durP1;ratioP1;P2;durP2;ratioP2
53479;SDS011;56133;51.012;-1.648;2022-07-24T00:01:24;10.10;;;5.50;;
53479;SDS011;56133;51.012;-1.648;2022-07-24T00:03:50;12.57;;;5.65;;
53479;SDS011;56133;51.012;-1.648;2022-07-24T00:06:15;11.77;;;5.70;;
53479;SDS011;56133;51.012;-1.648;2022-07-24T00:08:41;10.48;;;5.63;;
53479;SDS011;56133;51.012;-1.648;2022-07-24T00:11:06;11.45;;;5.38;;
53479;SDS011;56133;51.012;-1.648;2022-07-24T00:13:32;12.73;;;5.82;;
53479;SDS011;56133;51.012;-1.648;2022-07-24T00:15:57;10.75;;;5.63;;
53479;SDS011;56133;51.012;-1.648;2022-07-24T00:18:23;14.70;;;6.20;;
53479;SDS011;56133;51.012;-1.648;2022-07-24T00:20:48;13.20;;;5.57;;
53479;SDS011;56133;51.012;-1.648;2022-07-24T00:23:14;10.48;;;5.63;;
53479;SDS011;56133;51.012;-1.648;2022-07-24T00:25:39;10.48;;;5.47;;
53479;SDS011;56133;51.012;-1.648;2022-07-24T00:28:05;9.95;;;5.63;;
53479;SDS011;56133;51.012;-1.648;2022-07-24T00:30:30;10.45;;;5.72;;
53479;SDS011;56133;51.012;-1.648;2022-07-24T00:32:55;9.77;;;4.93;;
53479;SDS011;56133;51.012;-1.648;2022-07-24T00:35:21;13.32;;;5.50;;
53479;SDS011;56133;51.012;-1.648;2022-07-24T00:37:47;12.25;;;5.22;;
53479;SDS011;56133;51.012;-1.648;2022-07-24T00:40:13;8.15;;;4.53;;
53479;SDS011;56133;51.012;-1.648;2022-07-24T00:42:40;10.45;;;5.22;;
53479;SDS011;56133;51.012;-1.648;2022-07-24T00:45:06;9.48;;;5.13;;
53479;SDS011;56133;51.012;-1.648;2022-07-24T00:47:32;11.88;;;5.22;;
53479;SDS011;56133;51.012;-1.648;2022-07-24T00:49:58;10.10;;;4.85;;
53479;SDS011;56133;51.012;-1.648;2022-07-24T00:52:25;10.45;;;4.70;;
53479;SDS011;56133;51.012;-1.648;2022-07-24T00:54:50;12.05;;;5.07;;
53479;SDS011;56133;51.012;-1.648;2022-07-24T00:57:16;7.65;;;5.15;;
53479;SDS011;56133;51.012;-1.648;2022-07-24T00:59:41;10.43;;;5.50;;
53479;SDS011;56133;51.012;-1.648;2022-07-24T01:02:07;12.00;;;5.20;;
53479;SDS011;56133;51.012;-1.648;2022-07-24T01:04:32;9.10;;;4.78;;
53479;SDS011;56133;51.012;-1.648;2022-07-24T01:06:58;11.98;;;5.13;;
53479;SDS011;56133;51.012;-1.648;2022-07-24T01:09:23;11.60;;;5.10;;
53479;SDS011;56133;51.012;-1.648;2022-07-24T01:11:49;11.60;;;5.20;;
53479;SDS011;56133;51.012;-1.648;2022-07-24T01:14:16;8.30;;;4.90;;
53479;SDS011;56133;51.012;-1.648;2022-07-24T01:16:42;10.02;;;4.93;;
53479;SDS011;56133;51.012;-1.648;2022-07-24T01:19:08;8.68;;;4.90;;
53479;SDS011;56133;51.012;-1.648;2022-07-24T01:21:34;10.32;;;5.45;;
53479;SDS011;56133;51.012;-1.648;2022-07-24T01:24:00;8.05;;;5.30;;
53479;SDS011;56133;51.012;-1.648;2022-07-24T01:26:26;8.90;;;5.22;;
53479;SDS011;56133;51.012;-1.648;2022-07-24T01:28:51;10.95;;;5.85;;
53479;SDS011;56133;51.012;-1.648;2022-07-24T01:31:17;9.32;;;5.55;;
53479;SDS011;56133;51.012;-1.648;2022-07-24T01:33:43;9.98;;;5.20;;
53479;SDS011;56133;51.012;-1.648;2022-07-24T01:36:09;10.13;;;5.72;;
53479;SDS011;56133;51.012;-1.648;2022-07-24T01:38:34;12.10;;;6.13;;
53479;SDS011;56133;51.012;-1.648;2022-07-24T01:41:00;9.63;;;5.88;;
53479;SDS011;56133;51.012;-1.648;2022-07-24T01:43:26;11.32;;;6.07;;
53479;SDS011;56133;51.012;-1.648;2022-07-24T01:45:51;12.65;;;6.20;;
53479;SDS011;56133;51.012;-1.648;2022-07-24T01:48:17;8.52;;;5.38;;
53479;SDS011;56133;51.012;-1.648;2022-07-24T01:50:42;11.23;;;6.03;;
53479;SDS011;56133;51.012;-1.648;2022-07-24T01:53:08;11.73;;;6.07;;
53479;SDS011;56133;51.012;-1.648;2022-07-24T01:55:33;10.45;;;5.97;;
53479;SDS011;56133;51.012;-1.648;2022-07-24T01:57:59;12.65;;;6.50;;
53479;SDS011;56133;51.012;-1.648;2022-07-24T02:00:24;11.23;;;6.28;;
53479;SDS011;56133;51.012;-1.648;2022-07-24T02:02:50;10.48;;;5.85;;
53479;SDS011;56133;51.012;-1.648;2022-07-24T02:05:15;10.25;;;5.80;;
53479;SDS011;56133;51.012;-1.648;2022-07-24T02:07:44;10.98;;;6.15;;
53479;SDS011;56133;51.012;-1.648;2022-07-24T02:10:10;10.60;;;5.38;;
53479;SDS011;56133;51.012;-1.648;2022-07-24T02:12:37;9.30;;;5.78;;
53479;SDS011;56133;51.012;-1.648;2022-07-24T02:15:03;9.18;;;5.68;;
53479;SDS011;56133;51.012;-1.648;2022-07-24T02:17:29;8.93;;;5.72;;
53479;SDS011;56133;51.012;-1.648;2022-07-24T02:19:55;9.52;;;5.28;;
53479;SDS011;56133;51.012;-1.648;2022-07-24T02:22:21;10.48;;;5.60;;
53479;SDS011;56133;51.012;-1.648;2022-07-24T02:24:46;7.38;;;4.32;;
53479;SDS011;56133;51.012;-1.648;2022-07-24T02:27:12;8.32;;;5.10;;
53479;SDS011;56133;51.012;-1.648;2022-07-24T02:29:37;8.52;;;4.85;;
53479;SDS011;56133;51.012;-1.648;2022-07-24T02:32:04;9.65;;;5.18;;
53479;SDS011;56133;51.012;-1.648;2022-07-24T02:34:30;8.57;;;4.70;;
53479;SDS011;56133;51.012;-1.648;2022-07-24T02:36:56;8.45;;;4.80;;
53479;SDS011;56133;51.012;-1.648;2022-07-24T02:39:21;8.50;;;4.47;;
53479;SDS011;56133;51.012;-1.648;2022-07-24T02:41:47;10.68;;;4.57;;
53479;SDS011;56133;51.012;-1.648;2022-07-24T02:44:12;6.70;;;4.30;;
53479;SDS011;56133;51.012;-1.648;2022-07-24T02:46:38;7.97;;;4.30;;
53479;SDS011;56133;51.012;-1.648;2022-07-24T02:49:03;8.93;;;4.22;;
53479;SDS011;56133;51.012;-1.648;2022-07-24T02:51:28;7.35;;;3.88;;
53479;SDS011;56133;51.012;-1.648;2022-07-24T02:53:54;8.57;;;4.07;;
53479;SDS011;56133;51.012;-1.648;2022-07-24T02:56:19;7.93;;;4.55;;
53479;SDS011;56133;51.012;-1.648;2022-07-24T02:58:45;8.25;;;4.38;;
53479;SDS011;56133;51.012;-1.648;2022-07-24T03:01:10;7.45;;;4.25;;
53479;SDS011;56133;51.012;-1.648;2022-07-24T03:03:36;6.40;;;4.00;;
53479;SDS011;56133;51.012;-1.648;2022-07-24T03:06:01;8.45;;;4.28;;
53479;SDS011;56133;51.012;-1.648;2022-07-24T03:08:27;8.57;;;4.38;;
53479;SDS011;56133;51.012;-1.648;2022-07-24T03:10:52;6.38;;;4.10;;
53479;SDS011;56133;51.012;-1.648;2022-07-24T03:13:17;8.02;;;3.95;;
53479;SDS011;56133;51.012;-1.648;2022-07-24T03:15:43;8.23;;;3.70;;
53479;SDS011;56133;51.012;-1.648;2022-07-24T03:18:08;6.93;;;3.70;;
53479;SDS011;56133;51.012;-1.648;2022-07-24T03:20:34;6.95;;;3.90;;
53479;SDS011;56133;51.012;-1.648;2022-07-24T03:22:59;8.57;;;4.03;;
53479;SDS011;56133;51.012;-1.648;2022-07-24T03:25:25;9.27;;;4.07;;
53479;SDS011;56133;51.012;-1.648;2022-07-24T03:27:50;8.77;;;3.75;;
53479;SDS011;56133;51.012;-1.648;2022-07-24T03:30:16;7.65;;;3.97;;
53479;SDS011;56133;51.012;-1.648;2022-07-24T03:32:42;7.40;;;3.95;;
53479;SDS011;56133;51.012;-1.648;2022-07-24T03:35:08;7.85;;;3.75;;
53479;SDS011;56133;51.012;-1.648;2022-07-24T03:37:34;8.40;;;4.20;;
53479;SDS011;56133;51.012;-1.648;2022-07-24T03:40:00;8.65;;;4.13;;
53479;SDS011;56133;51.012;-1.648;2022-07-24T03:42:25;7.05;;;4.00;;
53479;SDS011;56133;51.012;-1.648;2022-07-24T03:44:51;9.90;;;4.45;;
53479;SDS011;56133;51.012;-1.648;2022-07-24T03:47:16;6.97;;;4.32;;
53479;SDS011;56133;51.012;-1.648;2022-07-24T03:49:42;7.55;;;3.78;;
53479;SDS011;56133;51.012;-1.648;2022-07-24T03:52:07;6.70;;;3.83;;
53479;SDS011;56133;51.012;-1.648;2022-07-24T03:54:33;7.57;;;3.63;;
53479;SDS011;56133;51.012;-1.648;2022-07-24T03:56:58;9.93;;;3.78;;
53479;SDS011;56133;51.012;-1.648;2022-07-24T03:59:23;7.93;;;4.30;;
53479;SDS011;56133;51.012;-1.648;2022-07-24T04:01:49;6.28;;;3.85;;
53479;SDS011;56133;51.012;-1.648;2022-07-24T04:04:14;8.68;;;4.38;;
53479;SDS011;56133;51.012;-1.648;2022-07-24T04:06:40;9.02;;;4.30;;
53479;SDS011;56133;51.012;-1.648;2022-07-24T04:09:06;7.93;;;4.05;;
53479;SDS011;56133;51.012;-1.648;2022-07-24T04:11:32;7.28;;;4.35;;
53479;SDS011;56133;51.012;-1.648;2022-07-24T04:13:57;7.10;;;3.67;;
53479;SDS011;56133;51.012;-1.648;2022-07-24T04:16:23;6.57;;;4.13;;
53479;SDS011;56133;51.012;-1.648;2022-07-24T04:18:49;6.85;;;4.00;;
53479;SDS011;56133;51.012;-1.648;2022-07-24T04:21:14;6.20;;;3.70;;
53479;SDS011;56133;51.012;-1.648;2022-07-24T04:23:40;7.45;;;4.07;;
53479;SDS011;56133;51.012;-1.648;2022-07-24T04:26:05;5.93;;;4.10;;
53479;SDS011;56133;51.012;-1.648;2022-07-24T04:28:31;7.53;;;4.05;;
53479;SDS011;56133;51.012;-1.648;2022-07-24T04:30:57;6.68;;;3.75;;
53479;SDS011;56133;51.012;-1.648;2022-07-24T04:33:22;5.45;;;3.75;;
53479;SDS011;56133;51.012;-1.648;2022-07-24T04:35:48;6.32;;;4.22;;
53479;SDS011;56133;51.012;-1.648;2022-07-24T04:38:13;5.18;;;3.78;;
53479;SDS011;56133;51.012;-1.648;2022-07-24T04:40:40;7.57;;;4.00;;
53479;SDS011;56133;51.012;-1.648;2022-07-24T04:43:06;9.43;;;3.90;;
53479;SDS011;56133;51.012;-1.648;2022-07-24T04:45:31;7.85;;;4.10;;
53479;SDS011;56133;51.012;-1.648;2022-07-24T04:47:57;5.28;;;3.90;;
53479;SDS011;56133;51.012;-1.648;2022-07-24T04:50:22;7.60;;;4.15;;
53479;SDS011;56133;51.012;-1.648;2022-07-24T04:52:48;7.15;;;4.18;;
53479;SDS011;56133;51.012;-1.648;2022-07-24T04:55:13;8.10;;;4.35;;
53479;SDS011;56133;51.012;-1.648;2022-07-24T04:57:39;9.30;;;4.47;;
53479;SDS011;56133;51.012;-1.648;2022-07-24T05:00:05;7.10;;;3.90;;
53479;SDS011;56133;51.012;-1.648;2022-07-24T05:02:33;7.22;;;4.30;;
53479;SDS011;56133;51.012;-1.648;2022-07-24T05:04:59;6.68;;;4.50;;
53479;SDS011;56133;51.012;-1.648;2022-07-24T05:07:24;6.65;;;4.28;;
53479;SDS011;56133;51.012;-1.648;2022-07-24T05:09:50;10.20;;;4.50;;
53479;SDS011;56133;51.012;-1.648;2022-07-24T05:12:15;13.77;;;4.93;;
53479;SDS011;56133;51.012;-1.648;2022-07-24T05:14:41;11.07;;;4.85;;
53479;SDS011;56133;51.012;-1.648;2022-07-24T05:17:06;9.07;;;4.82;;
53479;SDS011;56133;51.012;-1.648;2022-07-24T05:19:32;9.80;;;4.75;;
53479;SDS011;56133;51.012;-1.648;2022-07-24T05:21:57;12.48;;;4.57;;
53479;SDS011;56133;51.012;-1.648;2022-07-24T05:24:23;8.73;;;4.45;;
53479;SDS011;56133;51.012;-1.648;2022-07-24T05:26:50;5.60;;;4.35;;
53479;SDS011;56133;51.012;-1.648;2022-07-24T05:29:15;9.40;;;4.60;;
53479;SDS011;56133;51.012;-1.648;2022-07-24T05:31:41;7.75;;;4.50;;
53479;SDS011;56133;51.012;-1.648;2022-07-24T05:34:07;7.43;;;5.10;;
53479;SDS011;56133;51.012;-1.648;2022-07-24T05:36:33;7.45;;;4.68;;
53479;SDS011;56133;51.012;-1.648;2022-07-24T05:38:59;10.25;;;5.38;;
53479;SDS011;56133;51.012;-1.648;2022-07-24T05:41:24;10.38;;;5.35;;
53479;SDS011;56133;51.012;-1.648;2022-07-24T05:43:50;8.07;;;4.57;;
53479;SDS011;56133;51.012;-1.648;2022-07-24T05:46:15;7.13;;;4.38;;
53479;SDS011;56133;51.012;-1.648;2022-07-24T05:48:42;10.18;;;4.63;;
53479;SDS011;56133;51.012;-1.648;2022-07-24T05:51:07;10.27;;;5.07;;
53479;SDS011;56133;51.012;-1.648;2022-07-24T05:53:33;7.72;;;5.00;;
53479;SDS011;56133;51.012;-1.648;2022-07-24T05:55:58;9.57;;;5.20;;
53479;SDS011;56133;51.012;-1.648;2022-07-24T05:58:24;8.75;;;5.20;;
53479;SDS011;56133;51.012;-1.648;2022-07-24T06:00:49;13.20;;;5.68;;
53479;SDS011;56133;51.012;-1.648;2022-07-24T06:03:15;11.07;;;5.13;;
53479;SDS011;56133;51.012;-1.648;2022-07-24T06:05:40;11.30;;;5.40;;
53479;SDS011;56133;51.012;-1.648;2022-07-24T06:08:06;8.27;;;4.65;;
53479;SDS011;56133;51.012;-1.648;2022-07-24T06:10:31;10.57;;;4.93;;
53479;SDS011;56133;51.012;-1.648;2022-07-24T06:12:57;11.52;;;4.63;;
53479;SDS011;56133;51.012;-1.648;2022-07-24T06:15:23;10.00;;;5.03;;
53479;SDS011;56133;51.012;-1.648;2022-07-24T06:17:49;9.15;;;4.68;;
53479;SDS011;56133;51.012;-1.648;2022-07-24T06:20:14;8.45;;;4.80;;
53479;SDS011;56133;51.012;-1.648;2022-07-24T06:22:42;10.02;;;4.70;;
53479;SDS011;56133;51.012;-1.648;2022-07-24T06:25:09;8.52;;;4.43;;
53479;SDS011;56133;51.012;-1.648;2022-07-24T06:27:42;9.75;;;4.40;;
53479;SDS011;56133;51.012;-1.648;2022-07-24T06:30:15;8.98;;;4.38;;
53479;SDS011;56133;51.012;-1.648;2022-07-24T06:32:42;9.60;;;3.92;;
53479;SDS011;56133;51.012;-1.648;2022-07-24T06:35:09;5.13;;;3.75;;
53479;SDS011;56133;51.012;-1.648;2022-07-24T06:37:34;10.57;;;4.70;;
53479;SDS011;56133;51.012;-1.648;2022-07-24T06:40:00;7.13;;;3.97;;
53479;SDS011;56133;51.012;-1.648;2022-07-24T06:42:26;7.85;;;4.20;;
53479;SDS011;56133;51.012;-1.648;2022-07-24T06:44:51;7.75;;;4.40;;
53479;SDS011;56133;51.012;-1.648;2022-07-24T06:47:17;9.50;;;4.10;;
53479;SDS011;56133;51.012;-1.648;2022-07-24T06:49:43;9.32;;;4.57;;
53479;SDS011;56133;51.012;-1.648;2022-07-24T06:52:09;7.88;;;4.57;;
53479;SDS011;56133;51.012;-1.648;2022-07-24T06:54:34;9.52;;;4.68;;
53479;SDS011;56133;51.012;-1.648;2022-07-24T06:57:00;9.07;;;4.60;;
53479;SDS011;56133;51.012;-1.648;2022-07-24T06:59:25;8.10;;;4.30;;
53479;SDS011;56133;51.012;-1.648;2022-07-24T07:01:51;7.90;;;3.92;;
53479;SDS011;56133;51.012;-1.648;2022-07-24T07:04:16;9.63;;;4.50;;
53479;SDS011;56133;51.012;-1.648;2022-07-24T07:06:42;7.88;;;4.00;;
53479;SDS011;56133;51.012;-1.648;2022-07-24T07:09:08;8.30;;;4.43;;
53479;SDS011;56133;51.012;-1.648;2022-07-24T07:11:33;9.85;;;3.97;;
53479;SDS011;56133;51.012;-1.648;2022-07-24T07:14:00;6.40;;;3.30;;
53479;SDS011;56133;51.012;-1.648;2022-07-24T07:16:25;6.60;;;3.60;;
53479;SDS011;56133;51.012;-1.648;2022-07-24T07:18:51;6.80;;;3.88;;
53479;SDS011;56133;51.012;-1.648;2022-07-24T07:21:17;12.70;;;3.95;;
53479;SDS011;56133;51.012;-1.648;2022-07-24T07:23:43;7.47;;;4.10;;
53479;SDS011;56133;51.012;-1.648;2022-07-24T07:26:08;5.50;;;3.38;;
53479;SDS011;56133;51.012;-1.648;2022-07-24T07:28:34;7.20;;;3.42;;
53479;SDS011;56133;51.012;-1.648;2022-07-24T07:30:59;4.75;;;2.80;;
53479;SDS011;56133;51.012;-1.648;2022-07-24T07:33:25;6.47;;;3.15;;
53479;SDS011;56133;51.012;-1.648;2022-07-24T07:35:51;4.22;;;2.58;;
53479;SDS011;56133;51.012;-1.648;2022-07-24T07:38:17;5.03;;;2.95;;
53479;SDS011;56133;51.012;-1.648;2022-07-24T07:40:43;4.32;;;2.60;;
53479;SDS011;56133;51.012;-1.648;2022-07-24T07:43:08;7.22;;;2.65;;
53479;SDS011;56133;51.012;-1.648;2022-07-24T07:45:33;5.72;;;2.67;;
53479;SDS011;56133;51.012;-1.648;2022-07-24T07:47:59;3.95;;;2.40;;
53479;SDS011;56133;51.012;-1.648;2022-07-24T07:50:24;5.00;;;2.60;;
53479;SDS011;56133;51.012;-1.648;2022-07-24T07:52:50;5.18;;;2.55;;
53479;SDS011;56133;51.012;-1.648;2022-07-24T07:55:15;4.88;;;3.00;;
53479;SDS011;56133;51.012;-1.648;2022-07-24T07:57:41;4.78;;;3.17;;
53479;SDS011;56133;51.012;-1.648;2022-07-24T08:00:08;5.40;;;3.00;;
53479;SDS011;56133;51.012;-1.648;2022-07-24T08:02:35;5.55;;;3.17;;
53479;SDS011;56133;51.012;-1.648;2022-07-24T08:05:00;7.07;;;3.20;;
53479;SDS011;56133;51.012;-1.648;2022-07-24T08:07:26;5.28;;;3.08;;
53479;SDS011;56133;51.012;-1.648;2022-07-24T08:09:51;5.55;;;2.88;;
53479;SDS011;56133;51.012;-1.648;2022-07-24T08:12:17;5.70;;;2.90;;
53479;SDS011;56133;51.012;-1.648;2022-07-24T08:14:42;5.72;;;2.90;;
53479;SDS011;56133;51.012;-1.648;2022-07-24T08:17:08;7.25;;;3.30;;
53479;SDS011;56133;51.012;-1.648;2022-07-24T08:19:34;7.82;;;3.40;;
53479;SDS011;56133;51.012;-1.648;2022-07-24T08:21:59;6.97;;;3.35;;
53479;SDS011;56133;51.012;-1.648;2022-07-24T08:24:24;7.43;;;3.80;;
53479;SDS011;56133;51.012;-1.648;2022-07-24T08:26:50;6.57;;;3.40;;
53479;SDS011;56133;51.012;-1.648;2022-07-24T08:29:15;6.32;;;3.80;;
53479;SDS011;56133;51.012;-1.648;2022-07-24T08:31:41;6.15;;;3.33;;
53479;SDS011;56133;51.012;-1.648;2022-07-24T08:34:07;7.25;;;3.40;;
53479;SDS011;56133;51.012;-1.648;2022-07-24T08:36:33;10.02;;;4.30;;
53479;SDS011;56133;51.012;-1.648;2022-07-24T08:38:58;8.40;;;4.07;;
53479;SDS011;56133;51.012;-1.648;2022-07-24T08:41:24;8.57;;;4.20;;
53479;SDS011;56133;51.012;-1.648;2022-07-24T08:43:49;7.70;;;3.92;;
53479;SDS011;56133;51.012;-1.648;2022-07-24T08:46:15;7.63;;;4.00;;
53479;SDS011;56133;51.012;-1.648;2022-07-24T08:48:44;7.40;;;3.50;;
53479;SDS011;56133;51.012;-1.648;2022-07-24T08:51:14;7.22;;;3.70;;
53479;SDS011;56133;51.012;-1.648;2022-07-24T08:53:41;7.72;;;3.90;;
53479;SDS011;56133;51.012;-1.648;2022-07-24T08:56:09;8.63;;;4.30;;
53479;SDS011;56133;51.012;-1.648;2022-07-24T08:58:36;7.50;;;3.88;;
53479;SDS011;56133;51.012;-1.648;2022-07-24T09:01:02;6.88;;;3.70;;
53479;SDS011;56133;51.012;-1.648;2022-07-24T09:03:28;5.78;;;3.60;;
53479;SDS011;56133;51.012;-1.648;2022-07-24T09:06:02;7.68;;;3.65;;
53479;SDS011;56133;51.012;-1.648;2022-07-24T09:08:29;6.50;;;3.38;;
53479;SDS011;56133;51.012;-1.648;2022-07-24T09:10:58;9.18;;;3.50;;
53479;SDS011;56133;51.012;-1.648;2022-07-24T09:13:25;11.85;;;3.92;;
53479;SDS011;56133;51.012;-1.648;2022-07-24T09:15:52;6.38;;;3.17;;
53479;SDS011;56133;51.012;-1.648;2022-07-24T09:18:31;4.95;;;3.40;;
53479;SDS011;56133;51.012;-1.648;2022-07-24T09:20:59;5.55;;;3.45;;
53479;SDS011;56133;51.012;-1.648;2022-07-24T09:23:37;6.80;;;3.17;;
53479;SDS011;56133;51.012;-1.648;2022-07-24T09:26:04;6.40;;;3.65;;
53479;SDS011;56133;51.012;-1.648;2022-07-24T09:28:29;5.05;;;3.20;;
53479;SDS011;56133;51.012;-1.648;2022-07-24T09:31:10;6.00;;;2.83;;
53479;SDS011;56133;51.012;-1.648;2022-07-24T09:33:35;5.40;;;2.95;;
53479;SDS011;56133;51.012;-1.648;2022-07-24T09:36:02;5.95;;;2.65;;
53479;SDS011;56133;51.012;-1.648;2022-07-24T09:38:38;5.63;;;2.97;;
53479;SDS011;56133;51.012;-1.648;2022-07-24T09:41:03;6.30;;;3.33;;
53479;SDS011;56133;51.012;-1.648;2022-07-24T09:43:30;5.85;;;3.20;;
53479;SDS011;56133;51.012;-1.648;2022-07-24T09:45:58;4.78;;;2.80;;
53479;SDS011;56133;51.012;-1.648;2022-07-24T09:50:59;8.70;;;3.10;;
53479;SDS011;56133;51.012;-1.648;2022-07-24T09:53:26;6.68;;;2.88;;
53479;SDS011;56133;51.012;-1.648;2022-07-24T09:56:00;5.13;;;2.75;;
53479;SDS011;56133;51.012;-1.648;2022-07-24T09:58:36;4.80;;;2.80;;
53479;SDS011;56133;51.012;-1.648;2022-07-24T10:01:04;6.00;;;2.90;;
53479;SDS011;56133;51.012;-1.648;2022-07-24T10:03:32;6.88;;;2.67;;
53479;SDS011;56133;51.012;-1.648;2022-07-24T10:06:04;5.20;;;2.88;;
53479;SDS011;56133;51.012;-1.648;2022-07-24T10:08:31;4.18;;;2.50;;
53479;SDS011;56133;51.012;-1.648;2022-07-24T10:10:59;4.80;;;2.53;;
53479;SDS011;56133;51.012;-1.648;2022-07-24T10:13:26;6.03;;;2.97;;
53479;SDS011;56133;51.012;-1.648;2022-07-24T10:21:21;4.60;;;2.40;;
53479;SDS011;56133;51.012;-1.648;2022-07-24T10:26:33;4.95;;;2.47;;
53479;SDS011;56133;51.012;-1.648;2022-07-24T10:29:04;4.80;;;2.50;;
53479;SDS011;56133;51.012;-1.648;2022-07-24T10:31:38;4.82;;;2.20;;
53479;SDS011;56133;51.012;-1.648;2022-07-24T10:34:09;4.13;;;2.08;;
53479;SDS011;56133;51.012;-1.648;2022-07-24T10:37:05;4.82;;;2.15;;
53479;SDS011;56133;51.012;-1.648;2022-07-24T10:42:27;5.32;;;2.30;;
53479;SDS011;56133;51.012;-1.648;2022-07-24T10:47:47;5.60;;;2.47;;
53479;SDS011;56133;51.012;-1.648;2022-07-24T10:50:13;5.28;;;2.67;;
53479;SDS011;56133;51.012;-1.648;2022-07-24T10:52:40;4.85;;;2.42;;
53479;SDS011;56133;51.012;-1.648;2022-07-24T10:55:19;5.25;;;2.67;;
53479;SDS011;56133;51.012;-1.648;2022-07-24T11:00:31;6.15;;;2.38;;
53479;SDS011;56133;51.012;-1.648;2022-07-24T11:03:03;4.75;;;2.28;;
53479;SDS011;56133;51.012;-1.648;2022-07-24T11:05:34;5.25;;;2.22;;
53479;SDS011;56133;51.012;-1.648;2022-07-24T11:10:52;4.93;;;2.45;;
53479;SDS011;56133;51.012;-1.648;2022-07-24T11:21:34;7.60;;;2.80;;
53479;SDS011;56133;51.012;-1.648;2022-07-24T11:26:49;6.00;;;2.20;;
53479;SDS011;56133;51.012;-1.648;2022-07-24T11:29:19;5.38;;;2.30;;
53479;SDS011;56133;51.012;-1.648;2022-07-24T11:31:48;6.78;;;2.20;;
53479;SDS011;56133;51.012;-1.648;2022-07-24T11:34:16;5.80;;;2.50;;
53479;SDS011;56133;51.012;-1.648;2022-07-24T11:36:43;4.78;;;2.03;;
53479;SDS011;56133;51.012;-1.648;2022-07-24T11:39:13;5.25;;;2.22;;
53479;SDS011;56133;51.012;-1.648;2022-07-24T11:44:20;4.78;;;2.10;;
53479;SDS011;56133;51.012;-1.648;2022-07-24T11:46:48;3.43;;;1.80;;
53479;SDS011;56133;51.012;-1.648;2022-07-24T11:49:13;5.47;;;2.28;;
53479;SDS011;56133;51.012;-1.648;2022-07-24T11:51:42;5.20;;;2.15;;
53479;SDS011;56133;51.012;-1.648;2022-07-24T11:54:09;4.38;;;2.10;;
53479;SDS011;56133;51.012;-1.648;2022-07-24T11:56:36;5.25;;;1.83;;
53479;SDS011;56133;51.012;-1.648;2022-07-24T11:59:02;5.13;;;2.00;;
53479;SDS011;56133;51.012;-1.648;2022-07-24T12:01:27;4.90;;;1.80;;
53479;SDS011;56133;51.012;-1.648;2022-07-24T12:03:56;5.22;;;2.05;;
53479;SDS011;56133;51.012;-1.648;2022-07-24T12:06:23;8.75;;;2.00;;
53479;SDS011;56133;51.012;-1.648;2022-07-24T12:08:48;4.00;;;1.70;;
53479;SDS011;56133;51.012;-1.648;2022-07-24T12:11:20;6.30;;;1.98;;
53479;SDS011;56133;51.012;-1.648;2022-07-24T12:13:47;3.58;;;1.83;;
53479;SDS011;56133;51.012;-1.648;2022-07-24T12:16:25;3.53;;;1.88;;
53479;SDS011;56133;51.012;-1.648;2022-07-24T12:19:10;6.50;;;1.90;;
53479;SDS011;56133;51.012;-1.648;2022-07-24T12:21:40;3.67;;;2.15;;
53479;SDS011;56133;51.012;-1.648;2022-07-24T12:24:06;4.70;;;1.88;;
53479;SDS011;56133;51.012;-1.648;2022-07-24T12:26:32;3.45;;;1.88;;
53479;SDS011;56133;51.012;-1.648;2022-07-24T12:29:10;4.53;;;2.03;;
53479;SDS011;56133;51.012;-1.648;2022-07-24T12:31:36;6.28;;;2.15;;
53479;SDS011;56133;51.012;-1.648;2022-07-24T12:34:02;3.85;;;2.10;;
53479;SDS011;56133;51.012;-1.648;2022-07-24T12:36:29;4.10;;;2.15;;
53479;SDS011;56133;51.012;-1.648;2022-07-24T12:38:55;4.53;;;2.00;;
53479;SDS011;56133;51.012;-1.648;2022-07-24T12:41:22;6.38;;;2.25;;
53479;SDS011;56133;51.012;-1.648;2022-07-24T12:49:10;6.32;;;2.10;;
53479;SDS011;56133;51.012;-1.648;2022-07-24T12:54:25;3.30;;;1.67;;
53479;SDS011;56133;51.012;-1.648;2022-07-24T12:56:58;3.80;;;1.48;;
53479;SDS011;56133;51.012;-1.648;2022-07-24T12:59:29;3.33;;;1.30;;
53479;SDS011;56133;51.012;-1.648;2022-07-24T13:01:57;4.18;;;1.45;;
53479;SDS011;56133;51.012;-1.648;2022-07-24T13:04:24;4.35;;;1.38;;
53479;SDS011;56133;51.012;-1.648;2022-07-24T13:06:52;3.72;;;1.33;;
53479;SDS011;56133;51.012;-1.648;2022-07-24T13:09:22;5.13;;;1.40;;
53479;SDS011;56133;51.012;-1.648;2022-07-24T13:11:49;3.65;;;1.40;;
53479;SDS011;56133;51.012;-1.648;2022-07-24T13:14:16;4.38;;;1.40;;
53479;SDS011;56133;51.012;-1.648;2022-07-24T13:16:43;2.22;;;1.33;;
53479;SDS011;56133;51.012;-1.648;2022-07-24T13:19:10;4.57;;;1.25;;
53479;SDS011;56133;51.012;-1.648;2022-07-24T13:21:37;2.63;;;1.30;;
53479;SDS011;56133;51.012;-1.648;2022-07-24T13:24:04;4.15;;;1.60;;
53479;SDS011;56133;51.012;-1.648;2022-07-24T13:26:30;4.13;;;1.45;;
53479;SDS011;56133;51.012;-1.648;2022-07-24T13:28:56;4.03;;;1.63;;
53479;SDS011;56133;51.012;-1.648;2022-07-24T13:31:21;4.45;;;1.88;;
53479;SDS011;56133;51.012;-1.648;2022-07-24T13:33:47;4.13;;;1.50;;
53479;SDS011;56133;51.012;-1.648;2022-07-24T13:36:14;3.05;;;1.60;;
53479;SDS011;56133;51.012;-1.648;2022-07-24T13:38:40;3.30;;;1.45;;
53479;SDS011;56133;51.012;-1.648;2022-07-24T13:41:06;4.25;;;1.80;;
53479;SDS011;56133;51.012;-1.648;2022-07-24T13:43:32;4.15;;;1.73;;
53479;SDS011;56133;51.012;-1.648;2022-07-24T13:45:57;3.20;;;1.52;;
53479;SDS011;56133;51.012;-1.648;2022-07-24T13:48:23;3.50;;;1.45;;
53479;SDS011;56133;51.012;-1.648;2022-07-24T13:50:48;3.50;;;1.67;;
53479;SDS011;56133;51.012;-1.648;2022-07-24T13:53:14;4.65;;;1.90;;
53479;SDS011;56133;51.012;-1.648;2022-07-24T13:55:39;6.78;;;1.80;;
53479;SDS011;56133;51.012;-1.648;2022-07-24T13:58:05;6.75;;;1.77;;
53479;SDS011;56133;51.012;-1.648;2022-07-24T14:00:30;4.85;;;1.55;;
53479;SDS011;56133;51.012;-1.648;2022-07-24T14:02:56;4.20;;;1.30;;
53479;SDS011;56133;51.012;-1.648;2022-07-24T14:05:22;3.33;;;1.67;;
53479;SDS011;56133;51.012;-1.648;2022-07-24T14:07:48;4.63;;;1.77;;
53479;SDS011;56133;51.012;-1.648;2022-07-24T14:10:13;5.38;;;1.42;;
53479;SDS011;56133;51.012;-1.648;2022-07-24T14:12:39;3.58;;;1.50;;
53479;SDS011;56133;51.012;-1.648;2022-07-24T14:15:04;2.35;;;1.40;;
53479;SDS011;56133;51.012;-1.648;2022-07-24T14:17:30;4.60;;;1.42;;
53479;SDS011;56133;51.012;-1.648;2022-07-24T14:19:57;1.48;;;1.30;;
53479;SDS011;56133;51.012;-1.648;2022-07-24T14:22:23;4.80;;;1.85;;
53479;SDS011;56133;51.012;-1.648;2022-07-24T14:24:48;2.55;;;1.40;;
53479;SDS011;56133;51.012;-1.648;2022-07-24T14:27:14;2.47;;;1.20;;
53479;SDS011;56133;51.012;-1.648;2022-07-24T14:29:39;3.63;;;1.27;;
53479;SDS011;56133;51.012;-1.648;2022-07-24T14:32:05;3.65;;;1.42;;
53479;SDS011;56133;51.012;-1.648;2022-07-24T14:34:30;3.83;;;1.48;;
53479;SDS011;56133;51.012;-1.648;2022-07-24T14:36:56;4.55;;;1.40;;
53479;SDS011;56133;51.012;-1.648;2022-07-24T14:39:21;3.70;;;1.30;;
53479;SDS011;56133;51.012;-1.648;2022-07-24T14:41:46;4.57;;;1.35;;
53479;SDS011;56133;51.012;-1.648;2022-07-24T14:44:12;3.25;;;1.38;;
53479;SDS011;56133;51.012;-1.648;2022-07-24T14:46:38;3.35;;;1.30;;
53479;SDS011;56133;51.012;-1.648;2022-07-24T14:49:05;3.00;;;1.48;;
53479;SDS011;56133;51.012;-1.648;2022-07-24T14:51:31;3.42;;;1.30;;
53479;SDS011;56133;51.012;-1.648;2022-07-24T14:53:56;4.38;;;1.10;;
53479;SDS011;56133;51.012;-1.648;2022-07-24T14:56:21;3.08;;;1.40;;
53479;SDS011;56133;51.012;-1.648;2022-07-24T14:58:47;2.58;;;0.95;;
53479;SDS011;56133;51.012;-1.648;2022-07-24T15:01:12;2.65;;;1.25;;
53479;SDS011;56133;51.012;-1.648;2022-07-24T15:03:38;4.18;;;1.10;;
53479;SDS011;56133;51.012;-1.648;2022-07-24T15:06:03;3.22;;;1.00;;
53479;SDS011;56133;51.012;-1.648;2022-07-24T15:08:29;3.33;;;0.90;;
53479;SDS011;56133;51.012;-1.648;2022-07-24T15:10:54;2.97;;;0.90;;
53479;SDS011;56133;51.012;-1.648;2022-07-24T15:13:19;2.00;;;0.77;;